createdAt,value
2022-12-14T09:54:25.176Z,6.40
2022-12-14T09:56:53.155Z,5.57
2022-12-14T09:59:21.021Z,4.55
2022-12-14T10:02:28.929Z,4.63
2022-12-14T10:04:47.737Z,3.80
2022-12-14T10:07:34.496Z,3.92
2022-12-14T10:10:06.551Z,3.97
2022-12-14T10:12:45.945Z,3.60
2022-12-14T10:15:31.056Z,3.43
2022-12-14T10:17:58.097Z,3.10
2022-12-14T10:20:31.982Z,2.85
2022-12-14T10:23:00.642Z,3.22
2022-12-14T10:25:30.450Z,3.10
2022-12-14T10:28:10.742Z,3.00
2022-12-14T10:30:38.479Z,3.20
2022-12-14T10:33:21.728Z,3.55
2022-12-14T10:35:56.003Z,3.45
2022-12-14T10:38:41.877Z,3.30
2022-12-14T10:41:25.944Z,3.10
2022-12-14T10:43:53.034Z,3.35
2022-12-14T10:46:45.931Z,3.63
2022-12-14T10:49:16.348Z,3.90
2022-12-14T10:51:47.000Z,3.80
2022-12-14T10:54:17.002Z,3.90
2022-12-14T10:56:49.672Z,4.10
2022-12-14T10:59:25.847Z,3.60
2022-12-14T11:01:59.390Z,3.70
2022-12-14T11:04:37.943Z,3.90
2022-12-14T11:07:06.784Z,3.92
2022-12-14T11:09:33.906Z,3.93
2022-12-14T11:12:09.310Z,3.85
2022-12-14T11:14:37.309Z,3.97
2022-12-14T11:17:05.423Z,3.92
2022-12-14T11:19:32.580Z,4.03
2022-12-14T11:22:08.004Z,3.83
2022-12-14T11:24:43.282Z,3.97
2022-12-14T11:27:11.486Z,4.10
2022-12-14T11:29:39.528Z,4.15
2022-12-14T11:32:06.982Z,4.05
2022-12-14T11:34:43.376Z,4.13
2022-12-14T11:37:14.583Z,4.25
2022-12-14T11:39:42.785Z,3.80
2022-12-14T11:42:16.633Z,3.90
2022-12-14T11:44:43.755Z,3.88
2022-12-14T11:47:15.932Z,3.80
2022-12-14T11:49:42.997Z,4.00
2022-12-14T11:52:36.521Z,4.00
2022-12-14T11:55:27.090Z,4.07
2022-12-14T11:57:55.882Z,3.65
2022-12-14T12:00:27.819Z,4.00
2022-12-14T12:03:00.306Z,3.90
2022-12-14T12:05:28.147Z,4.40
2022-12-14T12:07:56.396Z,4.07
2022-12-14T12:10:28.285Z,4.20
2022-12-14T12:12:58.389Z,4.38
2022-12-14T12:15:39.126Z,3.77
2022-12-14T12:18:25.800Z,4.18
2022-12-14T12:21:02.522Z,3.72
2022-12-14T12:23:34.944Z,4.17
2022-12-14T12:26:13.316Z,3.87
2022-12-14T12:28:43.704Z,4.40
2022-12-14T12:31:15.526Z,3.80
2022-12-14T12:33:48.416Z,4.32
2022-12-14T12:36:23.377Z,4.13
2022-12-14T12:39:02.023Z,4.07
2022-12-14T12:41:29.098Z,3.95
2022-12-14T12:44:10.490Z,4.22
2022-12-14T12:47:14.938Z,4.13
2022-12-14T12:49:32.917Z,4.85
2022-12-14T12:52:01.844Z,4.55
2022-12-14T12:54:35.253Z,4.13
2022-12-14T12:57:03.097Z,4.63
2022-12-14T12:59:30.167Z,4.40
2022-12-14T13:02:03.839Z,4.20
2022-12-14T13:04:36.734Z,3.97
2022-12-14T13:07:05.686Z,3.33
2022-12-14T13:09:51.773Z,3.00
2022-12-14T13:12:24.394Z,3.50
2022-12-14T13:14:53.012Z,3.20
2022-12-14T13:17:30.111Z,3.30
2022-12-14T13:23:44.226Z,3.72
2022-12-14T13:26:56.115Z,3.50
2022-12-14T13:29:36.060Z,3.80
2022-12-14T13:32:35.463Z,3.60
2022-12-14T13:35:23.540Z,3.53
2022-12-14T13:37:53.665Z,3.65
2022-12-14T13:40:41.431Z,4.15
2022-12-14T13:43:08.641Z,3.73
2022-12-14T13:45:40.604Z,4.00
2022-12-14T13:48:24.799Z,3.55
2022-12-14T13:51:01.515Z,3.58
2022-12-14T13:53:29.226Z,3.80
2022-12-14T13:55:58.843Z,3.72
2022-12-14T13:58:33.693Z,3.67
2022-12-14T14:01:01.095Z,3.80
2022-12-14T14:03:37.512Z,4.10
2022-12-14T14:06:14.029Z,4.20
2022-12-14T14:08:43.083Z,4.47
2022-12-14T14:11:38.742Z,4.30
2022-12-14T14:14:19.188Z,4.78
2022-12-14T14:16:48.185Z,4.15
